Time;durP1;ratioP1;P1;durP2;ratioP2;P2;SDS_P1;SDS_P2;PMS_P1;PMS_P2;Temp;Humidity;BMP_temperature;BMP_pressure;BME280_temperature;BME280_humidity;BME280_pressure;Samples;Min_cycle;Max_cycle;Signal;HPM_P1;HPM_P2
2022/03/01 00:01:59;;;;;;;15.60;8.05;;;;;;;-0.72;100.00;96185.41;4976402;28;20121;-65
2022/03/01 00:04:24;;;;;;;16.35;7.97;;;;;;;-0.70;100.00;96180.78;4959190;28;20112;-65
2022/03/01 00:06:53;;;;;;;13.98;7.47;;;;;;;-0.73;100.00;96182.94;4976431;28;20058;-65
2022/03/01 00:09:21;;;;;;;12.73;7.78;;;;;;;-0.81;100.00;96173.25;4976418;28;20027;-65
2022/03/01 00:11:46;;;;;;;13.35;7.88;;;;;;;-0.84;100.00;96168.34;4973800;28;20082;-65
2022/03/01 00:14:12;;;;;;;14.77;7.63;;;;;;;-0.84;100.00;96160.44;4976280;28;20433;-65
2022/03/01 00:16:37;;;;;;;12.95;7.60;;;;;;;-0.81;100.00;96167.19;4976361;28;20046;-65
2022/03/01 00:19:08;;;;;;;12.82;7.47;;;;;;;-0.87;100.00;96160.75;4976912;28;20034;-64
2022/03/01 00:21:40;;;;;;;16.17;8.02;;;;;;;-0.97;100.00;96147.81;4976324;28;20034;-64
2022/03/01 00:24:09;;;;;;;17.17;8.65;;;;;;;-1.05;100.00;96147.81;4976444;28;20015;-64
2022/03/01 00:26:37;;;;;;;14.93;7.68;;;;;;;-1.10;100.00;96144.03;4976223;28;20542;-65
2022/03/01 00:29:04;;;;;;;15.68;7.90;;;;;;;-1.23;100.00;96132.22;4974811;28;20034;-64
2022/03/01 00:31:32;;;;;;;13.43;7.90;;;;;;;-1.29;100.00;96129.47;4975970;28;20023;-65
2022/03/01 00:34:04;;;;;;;16.83;8.13;;;;;;;-1.34;100.00;96123.88;4974724;28;20474;-65
2022/03/01 00:36:30;;;;;;;17.08;8.07;;;;;;;-1.32;100.00;96111.38;4975966;28;20394;-65
2022/03/01 00:39:01;;;;;;;14.00;7.65;;;;;;;-1.27;100.00;96112.53;4975749;28;20085;-65
2022/03/01 00:41:33;;;;;;;16.20;7.97;;;;;;;-1.24;100.00;96109.56;4975620;28;20038;-64
2022/03/01 00:44:04;;;;;;;14.77;7.68;;;;;;;-1.21;100.00;96105.78;4975760;28;20038;-65
2022/03/01 00:46:29;;;;;;;15.88;8.23;;;;;;;-1.10;100.00;96112.50;4975835;28;20039;-65
2022/03/01 00:48:56;;;;;;;13.50;7.22;;;;;;;-1.08;100.00;96108.72;4975650;28;20033;-65
2022/03/01 00:51:23;;;;;;;14.13;7.95;;;;;;;-1.05;100.00;96108.38;4974226;28;20182;-66
2022/03/01 00:53:51;;;;;;;15.35;7.57;;;;;;;-1.03;100.00;96114.28;4975428;28;20026;-65
2022/03/01 00:56:19;;;;;;;15.75;8.00;;;;;;;-1.01;100.00;96114.94;4975775;28;20105;-65
2022/03/01 00:58:53;;;;;;;17.77;7.70;;;;;;;-0.99;100.00;96120.03;4975577;28;20109;-65
2022/03/01 01:01:18;;;;;;;14.50;7.95;;;;;;;-1.01;100.00;96119.38;4974268;28;20023;-65
2022/03/01 01:03:46;;;;;;;13.80;7.35;;;;;;;-1.08;100.00;96128.94;4974205;28;20496;-65
2022/03/01 01:06:14;;;;;;;14.60;8.35;;;;;;;-1.17;100.00;96128.94;4975110;28;20033;-65
2022/03/01 01:08:39;;;;;;;15.68;8.23;;;;;;;-1.28;100.00;96131.09;4975271;28;20030;-65
2022/03/01 01:11:05;;;;;;;14.88;7.00;;;;;;;-1.42;100.00;96127.31;4975296;28;20048;-65
2022/03/01 01:13:42;;;;;;;15.25;8.23;;;;;;;-1.53;100.00;96120.56;4975166;28;20035;-65
2022/03/01 01:16:11;;;;;;;16.17;8.20;;;;;;;-1.54;100.00;96112.88;4974697;28;20028;-65
2022/03/01 01:18:38;;;;;;;14.75;8.25;;;;;;;-1.58;100.00;96108.94;4973827;28;20023;-65
2022/03/01 01:21:13;;;;;;;14.07;8.07;;;;;;;-1.62;100.00;96099.75;4974836;28;20037;-65
2022/03/01 01:23:45;;;;;;;15.63;8.43;;;;;;;-1.67;100.00;96100.22;4973798;28;20018;-65
2022/03/01 01:26:10;;;;;;;14.95;8.02;;;;;;;-1.71;100.00;96095.47;4974960;28;20034;-65
2022/03/01 01:28:51;;;;;;;13.45;8.40;;;;;;;-1.79;100.00;96094.47;4973779;28;20027;-65
2022/03/01 01:31:17;;;;;;;12.77;7.38;;;;;;;-1.86;100.00;96077.72;4973485;28;20041;-65
2022/03/01 01:33:45;;;;;;;14.40;8.20;;;;;;;-1.92;100.00;96067.88;4974742;28;20031;-65
2022/03/01 01:36:12;;;;;;;15.00;7.75;;;;;;;-1.96;100.00;96056.06;4973633;28;20030;-65
2022/03/01 01:38:47;;;;;;;17.88;8.70;;;;;;;-2.00;100.00;96043.44;4974813;28;20090;-65
2022/03/01 01:41:12;;;;;;;15.02;8.43;;;;;;;-2.06;100.00;96032.63;4974736;28;20512;-65
2022/03/01 01:43:40;;;;;;;14.02;8.27;;;;;;;-2.06;100.00;96024.75;4973394;28;20022;-65
2022/03/01 01:46:05;;;;;;;16.00;8.10;;;;;;;-2.10;100.00;96019.97;4974606;28;20026;-65
2022/03/01 01:48:30;;;;;;;14.32;7.68;;;;;;;-2.11;100.00;96011.28;4974495;28;20029;-65
2022/03/01 01:50:59;;;;;;;16.05;8.23;;;;;;;-2.10;100.00;96012.09;4973212;28;20046;-65
2022/03/01 01:53:24;;;;;;;14.20;8.15;;;;;;;-2.11;100.00;96011.28;4973140;28;20109;-64
2022/03/01 01:55:59;;;;;;;15.40;8.68;;;;;;;-2.15;100.00;96015.22;4974464;28;20118;-64
2022/03/01 01:58:25;;;;;;;15.10;8.52;;;;;;;-2.15;100.00;96009.97;4974331;28;20023;-64
2022/03/01 02:00:53;;;;;;;16.52;8.82;;;;;;;-2.16;100.00;96007.50;4989243;28;20030;-64
2022/03/01 02:03:20;;;;;;;15.55;8.23;;;;;;;-2.18;100.00;96010.28;4974337;28;20505;-64
2022/03/01 02:05:45;;;;;;;14.93;8.23;;;;;;;-2.26;100.00;96009.47;4973343;28;20382;-64
2022/03/01 02:08:14;;;;;;;15.65;8.55;;;;;;;-2.39;100.00;96010.78;4972978;28;20041;-64
2022/03/01 02:10:48;;;;;;;17.98;8.32;;;;;;;-2.55;100.00;96005.47;4974145;28;20057;-64
2022/03/01 02:13:17;;;;;;;14.60;8.05;;;;;;;-2.75;100.00;95997.06;4974025;28;20143;-64
2022/03/01 02:15:45;;;;;;;15.77;8.15;;;;;;;-2.94;100.00;95998.16;4974236;28;20030;-64
2022/03/01 02:18:11;;;;;;;16.38;8.35;;;;;;;-3.11;100.00;96004.34;4974090;28;20041;-63
2022/03/01 02:20:36;;;;;;;15.63;8.13;;;;;;;-3.26;100.00;96011.13;4973942;28;20026;-64
2022/03/01 02:23:01;;;;;;;16.42;8.80;;;;;;;-3.41;100.00;95999.59;4988900;28;20026;-63
2022/03/01 02:25:36;;;;;;;16.23;8.40;;;;;;;-3.54;100.00;95997.41;4973981;28;20022;-63
2022/03/01 02:28:01;;;;;;;19.02;8.25;;;;;;;-3.69;100.00;95998.94;4973907;28;20030;-62
2022/03/01 02:30:29;;;;;;;18.40;8.82;;;;;;;-3.70;100.00;95981.59;4989373;28;20118;-62
2022/03/01 02:32:58;;;;;;;16.67;8.48;;;;;;;-3.71;100.00;95956.41;4973756;28;20041;-62
2022/03/01 02:35:26;;;;;;;18.25;8.65;;;;;;;-3.70;100.00;95937.09;4972093;28;20105;-62
2022/03/01 02:37:52;;;;;;;17.85;8.57;;;;;;;-3.71;100.00;95917.13;4973094;28;20031;-62
2022/03/01 02:40:17;;;;;;;15.00;8.63;;;;;;;-3.74;100.00;95904.38;4973769;28;20544;-61
2022/03/01 02:42:45;;;;;;;15.75;9.20;;;;;;;-3.77;100.00;95883.75;4956371;28;20061;-62
2022/03/01 02:45:12;;;;;;;16.95;8.65;;;;;;;-3.83;100.00;95874.72;4973674;28;20497;-62
2022/03/01 02:47:38;;;;;;;17.33;8.73;;;;;;;-3.90;100.00;95871.09;4973719;28;20393;-62
2022/03/01 02:50:08;;;;;;;14.23;8.35;;;;;;;-3.95;100.00;95860.25;4973557;28;20030;-60
2022/03/01 02:52:39;;;;;;;18.52;9.07;;;;;;;-3.88;100.00;95848.19;4973411;28;20038;-61
2022/03/01 02:55:05;;;;;;;19.02;9.15;;;;;;;-3.70;100.00;95829.75;4973650;28;20026;-62
2022/03/01 02:57:34;;;;;;;19.95;9.60;;;;;;;-3.59;100.00;95822.44;4988596;28;20041;-62
2022/03/01 02:59:59;;;;;;;17.80;9.63;;;;;;;-3.51;100.00;95816.41;4973507;28;20035;-62
2022/03/01 03:02:28;;;;;;;18.63;9.95;;;;;;;-3.46;100.00;95813.31;4973656;28;20371;-62
2022/03/01 03:04:53;;;;;;;18.02;9.95;;;;;;;-3.48;100.00;95810.03;4972164;28;20066;-63
2022/03/01 03:07:26;;;;;;;17.17;9.20;;;;;;;-3.62;100.00;95807.06;4972207;28;20043;-63
2022/03/01 03:09:54;;;;;;;20.60;10.60;;;;;;;-3.72;100.00;95795.88;4973426;28;20371;-63
2022/03/01 03:12:19;;;;;;;19.65;9.90;;;;;;;-3.83;100.00;95791.78;4956001;28;20034;-63
2022/03/01 03:14:47;;;;;;;21.20;9.40;;;;;;;-3.86;100.00;95783.44;4973361;28;20037;-63
2022/03/01 03:17:20;;;;;;;17.65;9.20;;;;;;;-3.82;100.00;95784.72;4973392;28;20026;-63
2022/03/01 03:19:45;;;;;;;15.75;8.40;;;;;;;-3.63;100.00;95771.38;4973454;28;20110;-62
2022/03/01 03:22:10;;;;;;;15.88;8.88;;;;;;;-3.30;100.00;95768.81;4973187;28;20062;-62
2022/03/01 03:24:38;;;;;;;16.40;8.13;;;;;;;-3.10;100.00;95764.91;4973242;28;20049;-62
2022/03/01 03:27:04;;;;;;;14.95;7.88;;;;;;;-2.83;100.00;95760.28;4973314;28;20031;-62
2022/03/01 03:29:29;;;;;;;15.70;8.05;;;;;;;-2.72;100.00;95765.19;4973332;28;20054;-62
2022/03/01 03:32:02;;;;;;;21.83;8.85;;;;;;;-2.65;100.00;95772.22;4971820;28;20027;-62
2022/03/01 03:34:28;;;;;;;16.88;8.65;;;;;;;-2.67;100.00;95771.59;4973175;28;20489;-60
2022/03/01 03:36:53;;;;;;;16.38;8.95;;;;;;;-2.77;100.00;95768.31;4973230;28;20030;-61
2022/03/01 03:39:21;;;;;;;15.77;8.82;;;;;;;-2.86;100.00;95773.72;4973063;28;20035;-60
2022/03/01 03:41:47;;;;;;;17.42;9.50;;;;;;;-2.94;100.00;95774.53;4971785;28;20023;-61
2022/03/01 03:44:12;;;;;;;16.35;9.02;;;;;;;-3.04;100.00;95782.59;4988317;28;20102;-60
2022/03/01 03:46:38;;;;;;;18.23;8.77;;;;;;;-3.09;100.00;95779.63;4957738;28;20035;-59
2022/03/01 03:49:05;;;;;;;16.90;8.43;;;;;;;-3.08;100.00;95786.50;4976749;28;20026;-60
2022/03/01 03:51:30;;;;;;;16.50;8.40;;;;;;;-3.17;100.00;95786.66;4976438;28;20061;-60
2022/03/01 03:53:59;;;;;;;18.27;8.80;;;;;;;-3.33;100.00;95796.16;4976570;28;20475;-61
2022/03/01 03:56:24;;;;;;;15.20;8.48;;;;;;;-3.49;100.00;95790.88;4976662;28;20398;-59
2022/03/01 03:58:55;;;;;;;16.10;9.15;;;;;;;-3.69;100.00;95785.13;4976533;28;20031;-60
2022/03/01 04:01:21;;;;;;;16.83;8.68;;;;;;;-3.87;100.00;95785.22;4976266;28;20036;-58
2022/03/01 04:03:51;;;;;;;18.25;9.00;;;;;;;-4.07;100.00;95778.59;4976380;28;20034;-60
2022/03/01 04:06:16;;;;;;;16.42;8.95;;;;;;;-4.12;100.00;95783.50;4991303;28;20553;-60
2022/03/01 04:08:45;;;;;;;18.40;9.25;;;;;;;-4.12;100.00;95780.88;4976399;28;20118;-59
2022/03/01 04:11:10;;;;;;;17.88;8.68;;;;;;;-4.16;100.00;95780.34;4976269;28;20656;-58
2022/03/01 04:13:39;;;;;;;20.90;9.23;;;;;;;-4.15;100.00;95765.47;4976213;28;20065;-59
2022/03/01 04:16:04;;;;;;;17.92;9.27;;;;;;;-4.23;100.00;95765.47;4976092;28;20023;-57
2022/03/01 04:18:30;;;;;;;18.90;9.57;;;;;;;-4.31;100.00;95768.03;4976120;28;20073;-59
2022/03/01 04:20:58;;;;;;;16.52;8.85;;;;;;;-4.41;100.00;95762.91;4974742;28;20058;-57
2022/03/01 04:23:30;;;;;;;14.77;8.15;;;;;;;-4.40;100.00;95756.72;4976165;28;20042;-59
2022/03/01 04:25:58;;;;;;;14.55;8.02;;;;;;;-4.27;100.00;95757.09;4976057;28;20035;-59
2022/03/01 04:28:23;;;;;;;16.48;8.43;;;;;;;-4.19;100.00;95751.91;4976021;28;20089;-59
2022/03/01 04:30:49;;;;;;;17.95;9.35;;;;;;;-4.19;100.00;95748.47;4976152;28;20035;-59
2022/03/01 04:33:14;;;;;;;19.92;8.93;;;;;;;-4.14;100.00;95739.16;4975890;28;20126;-59
2022/03/01 04:35:40;;;;;;;16.42;8.32;;;;;;;-4.04;100.00;95733.81;4974641;28;20027;-59
2022/03/01 04:38:05;;;;;;;17.92;9.27;;;;;;;-3.97;100.00;95741.84;4975772;28;20501;-56
2022/03/01 04:40:31;;;;;;;16.15;9.05;;;;;;;-3.93;100.00;95736.13;4990519;28;20477;-59
2022/03/01 04:42:57;;;;;;;16.95;9.23;;;;;;;-3.93;100.00;95727.44;4975735;28;20023;-57
2022/03/01 04:45:27;;;;;;;18.90;9.27;;;;;;;-3.98;100.00;95735.78;4975777;28;20030;-59
2022/03/01 04:47:55;;;;;;;16.75;8.23;;;;;;;-4.04;100.00;95725.94;4975718;28;20038;-59
2022/03/01 04:50:20;;;;;;;14.80;8.57;;;;;;;-4.05;100.00;95728.72;4975321;28;20033;-59
2022/03/01 04:52:48;;;;;;;16.30;9.23;;;;;;;-4.06;100.00;95733.16;4996077;23;20038;-59
2022/03/01 04:55:20;;;;;;;17.60;8.27;;;;;;;-4.10;100.00;95735.28;4994160;28;20034;-59
2022/03/01 04:58:01;;;;;;;18.85;9.38;;;;;;;-4.19;100.00;95732.78;4993053;28;20117;-58
2022/03/01 05:00:29;;;;;;;17.95;9.15;;;;;;;-4.29;100.00;95727.66;4995055;28;20026;-59
2022/03/01 05:03:01;;;;;;;18.80;8.52;;;;;;;-4.37;100.00;95725.84;4994890;28;20019;-59
2022/03/01 05:05:26;;;;;;;15.63;8.40;;;;;;;-4.44;100.00;95727.47;4994815;28;20027;-59
2022/03/01 05:07:51;;;;;;;17.00;9.13;;;;;;;-4.45;100.00;95723.22;4994766;28;20033;-60
2022/03/01 05:10:29;;;;;;;14.32;7.72;;;;;;;-4.43;100.00;95721.25;5009705;28;20041;-59
2022/03/01 05:12:57;;;;;;;16.15;8.82;;;;;;;-4.38;100.00;95708.50;5009621;28;20046;-60
2022/03/01 05:15:28;;;;;;;15.57;8.40;;;;;;;-4.35;100.00;95719.63;4993972;28;20026;-60
2022/03/01 05:17:55;;;;;;;18.40;8.38;;;;;;;-4.39;100.00;95713.91;4994620;28;20029;-59
2022/03/01 05:20:25;;;;;;;17.60;8.85;;;;;;;-4.42;100.00;95709.00;4981908;28;20042;-60
2022/03/01 05:22:51;;;;;;;16.30;8.15;;;;;;;-4.35;100.00;95722.25;4990993;28;20041;-59
2022/03/01 05:25:24;;;;;;;16.60;9.38;;;;;;;-4.34;100.00;95710.81;4994495;28;20030;-59
2022/03/01 05:28:10;;;;;;;15.70;8.48;;;;;;;-4.33;100.00;95715.91;4994430;28;20033;-60
2022/03/01 05:30:44;;;;;;;18.20;8.48;;;;;;;-4.26;100.00;95705.59;4993885;28;20549;-59
2022/03/01 05:33:31;;;;;;;16.80;9.45;;;;;;;-4.15;100.00;95708.75;4994209;28;20034;-58
2022/03/01 05:36:13;;;;;;;15.40;8.55;;;;;;;-4.10;100.00;95709.09;4994285;28;20375;-59
2022/03/01 05:38:47;;;;;;;16.52;9.30;;;;;;;-4.16;100.00;95714.16;4994328;28;20030;-60
2022/03/01 05:41:12;;;;;;;18.70;8.48;;;;;;;-4.27;100.00;95709.19;4994103;28;20088;-60
2022/03/01 05:43:40;;;;;;;17.70;8.82;;;;;;;-4.41;100.00;95718.47;4994008;28;20121;-59
2022/03/01 05:46:12;;;;;;;18.65;8.65;;;;;;;-4.55;100.00;95722.50;4994131;28;20104;-59
2022/03/01 05:48:37;;;;;;;16.80;8.90;;;;;;;-4.63;100.00;95716.41;4994018;28;20026;-59
2022/03/01 05:51:04;;;;;;;16.15;9.30;;;;;;;-4.54;100.00;95712.88;5008803;28;20087;-58
2022/03/01 05:53:32;;;;;;;18.67;9.70;;;;;;;-4.27;100.00;95706.59;4993818;28;20030;-58
2022/03/01 05:55:58;;;;;;;20.17;10.73;;;;;;;-4.09;100.00;95710.75;4994119;28;20053;-57
2022/03/01 05:58:23;;;;;;;16.75;8.38;;;;;;;-4.00;100.00;95706.34;4993767;28;20030;-57
2022/03/01 06:00:49;;;;;;;15.57;9.10;;;;;;;-3.82;100.00;95709.66;4993806;28;20102;-57
2022/03/01 06:03:14;;;;;;;15.63;8.85;;;;;;;-3.65;100.00;95705.28;4993794;28;20106;-57
2022/03/01 06:05:39;;;;;;;14.85;8.35;;;;;;;-3.58;100.00;95710.69;4992601;28;20030;-58
2022/03/01 06:08:05;;;;;;;15.30;8.93;;;;;;;-3.60;100.00;95712.63;4993616;28;20026;-57
2022/03/01 06:10:30;;;;;;;17.67;8.68;;;;;;;-3.71;100.00;95712.94;4992758;28;20026;-56
2022/03/01 06:12:57;;;;;;;17.10;8.85;;;;;;;-3.92;100.00;95719.44;4965914;28;20088;-57
2022/03/01 06:15:22;;;;;;;18.77;9.07;;;;;;;-4.10;100.00;95724.00;4992506;28;20034;-57
2022/03/01 06:17:48;;;;;;;25.73;11.60;;;;;;;-4.30;100.00;95720.81;4989144;28;20085;-57
2022/03/01 06:20:17;;;;;;;23.23;10.13;;;;;;;-4.46;100.00;95718.94;4987213;28;20039;-57
2022/03/01 06:22:44;;;;;;;16.83;8.50;;;;;;;-4.62;100.00;95721.47;4982146;28;20078;-57
2022/03/01 06:25:10;;;;;;;17.23;9.05;;;;;;;-4.78;100.00;95718.75;4975867;28;20069;-55
2022/03/01 06:27:37;;;;;;;18.02;9.65;;;;;;;-4.94;100.00;95719.50;4989224;28;20052;-55
2022/03/01 06:30:07;;;;;;;17.10;9.00;;;;;;;-5.09;100.00;95721.84;4973100;28;20023;-52
2022/03/01 06:32:32;;;;;;;22.27;9.93;;;;;;;-5.22;100.00;95724.03;4986024;28;20133;-55
2022/03/01 06:34:58;;;;;;;15.65;8.73;;;;;;;-5.35;100.00;95734.88;4992118;28;20101;-53
2022/03/01 06:37:24;;;;;;;21.05;9.30;;;;;;;-5.47;100.00;95732.66;4976709;28;20053;-54
2022/03/01 06:39:50;;;;;;;18.05;9.02;;;;;;;-5.58;100.00;95738.91;4982330;28;20109;-56
2022/03/01 06:42:16;;;;;;;16.10;9.70;;;;;;;-5.65;100.00;95733.47;4988318;28;20415;-54
2022/03/01 06:44:42;;;;;;;19.38;9.77;;;;;;;-5.63;100.00;95734.16;4985050;28;20370;-55
2022/03/01 06:47:13;;;;;;;19.17;9.73;;;;;;;-5.62;100.00;95734.97;4989259;28;20089;-52
2022/03/01 06:49:42;;;;;;;16.40;8.40;;;;;;;-5.61;100.00;95734.81;4989668;28;20018;-54
2022/03/01 06:52:07;;;;;;;16.38;8.25;;;;;;;-5.59;100.00;95735.47;4987754;28;20157;-56
2022/03/01 06:54:38;;;;;;;16.58;8.98;;;;;;;-5.53;100.00;95735.88;5008013;28;20121;-52
2022/03/01 06:57:04;;;;;;;25.88;9.35;;;;;;;-5.52;100.00;95733.09;4988457;28;20026;-56
2022/03/01 06:59:29;;;;;;;19.73;9.73;;;;;;;-5.37;100.00;95730.78;4973388;28;20027;-54
2022/03/01 07:01:55;;;;;;;18.90;9.52;;;;;;;-5.14;100.00;95728.50;4988242;28;20396;-56
2022/03/01 07:04:26;;;;;;;22.17;10.23;;;;;;;-4.80;100.00;95733.78;4982799;28;20040;-55
2022/03/01 07:06:52;;;;;;;24.02;9.57;;;;;;;-4.47;100.00;95738.22;4972036;28;20750;-55
2022/03/01 07:09:21;;;;;;;19.50;9.93;;;;;;;-4.01;100.00;95732.69;4979060;28;20030;-54
2022/03/01 07:11:46;;;;;;;17.60;9.52;;;;;;;-3.63;100.00;95728.66;4975734;28;20022;-53
2022/03/01 07:14:21;;;;;;;22.40;10.30;;;;;;;-3.38;100.00;95732.94;4991616;28;20022;-55
2022/03/01 07:16:46;;;;;;;17.55;9.85;;;;;;;-3.13;100.00;95733.78;4990698;28;20041;-56
2022/03/01 07:19:12;;;;;;;21.95;10.02;;;;;;;-2.99;100.00;95733.13;4990774;28;20022;-56
2022/03/01 07:21:37;;;;;;;17.63;9.00;;;;;;;-2.86;100.00;95729.97;5000511;28;20022;-52
2022/03/01 07:24:03;;;;;;;17.02;9.05;;;;;;;-2.74;100.00;95727.84;4990587;28;20093;-55
2022/03/01 07:26:29;;;;;;;16.52;8.98;;;;;;;-2.64;100.00;95731.09;4988278;28;20117;-56
2022/03/01 07:29:00;;;;;;;24.05;9.63;;;;;;;-2.47;100.00;95730.06;4996369;28;20465;-52
2022/03/01 07:31:25;;;;;;;19.55;10.23;;;;;;;-2.35;100.00;95728.72;4995796;28;20030;-56
2022/03/01 07:33:51;;;;;;;19.25;10.18;;;;;;;-2.18;100.00;95731.28;5010834;28;20392;-54
2022/03/01 07:36:16;;;;;;;17.17;9.05;;;;;;;-2.03;100.00;95728.78;4995734;28;20041;-57
2022/03/01 07:38:42;;;;;;;16.83;9.25;;;;;;;-1.88;100.00;95730.47;4983430;28;20026;-56
2022/03/01 07:41:07;;;;;;;17.15;9.82;;;;;;;-1.68;100.00;95732.69;4938090;28;20450;-58
2022/03/01 07:43:35;;;;;;;18.88;9.43;;;;;;;-1.51;100.00;95721.91;4995885;28;20113;-57
2022/03/01 07:46:02;;;;;;;16.50;9.02;;;;;;;-1.34;100.00;95725.22;4995495;28;20034;-57
2022/03/01 07:48:28;;;;;;;16.67;9.07;;;;;;;-1.15;100.00;95734.47;5010413;28;20108;-57
2022/03/01 07:50:56;;;;;;;16.15;9.35;;;;;;;-1.00;100.00;95724.78;4994248;28;20081;-59
2022/03/01 07:53:37;;;;;;;18.33;9.18;;;;;;;-0.84;100.00;95733.56;4995313;28;20489;-58
2022/03/01 07:56:05;;;;;;;19.38;9.65;;;;;;;-0.61;100.00;95740.41;4995398;28;20033;-60
2022/03/01 07:58:33;;;;;;;17.58;8.88;;;;;;;-0.40;100.00;95739.69;4995244;28;20034;-60
2022/03/01 08:00:59;;;;;;;16.35;8.80;;;;;;;-0.12;100.00;95744.31;4994151;28;20030;-61
2022/03/01 08:03:27;;;;;;;18.23;9.63;;;;;;;0.00;100.00;95750.78;4994161;28;20024;-60
2022/03/01 08:05:59;;;;;;;16.50;9.32;;;;;;;0.24;100.00;95761.00;4995300;28;20420;-61
2022/03/01 08:08:24;;;;;;;18.63;9.05;;;;;;;0.42;100.00;95775.59;4976793;28;20125;-61
2022/03/01 08:10:50;;;;;;;16.92;9.18;;;;;;;0.56;100.00;95790.56;4992681;28;20054;-61
2022/03/01 08:13:16;;;;;;;16.95;8.73;;;;;;;0.65;100.00;95807.94;4993724;28;20041;-61
2022/03/01 08:15:51;;;;;;;16.00;9.02;;;;;;;0.66;100.00;95829.81;4992835;28;20037;-61
2022/03/01 08:18:17;;;;;;;14.77;8.70;;;;;;;0.80;100.00;95844.78;4994584;28;20029;-61
2022/03/01 08:20:42;;;;;;;14.85;8.20;;;;;;;0.76;100.00;95869.88;4994921;28;20026;-60
2022/03/01 08:23:08;;;;;;;12.85;7.60;;;;;;;0.82;100.00;95883.16;4993661;28;20456;-61
2022/03/01 08:25:42;;;;;;;15.75;8.10;;;;;;;1.07;100.00;95899.47;4994995;28;20022;-61
2022/03/01 08:28:07;;;;;;;14.85;8.02;;;;;;;1.23;100.00;95919.56;4993110;28;20034;-61
2022/03/01 08:30:35;;;;;;;15.23;9.02;;;;;;;1.31;100.00;95940.56;4994339;28;20370;-62
2022/03/01 08:33:01;;;;;;;13.80;8.73;;;;;;;1.31;100.00;95961.66;4977253;28;20042;-60
2022/03/01 08:35:27;;;;;;;16.45;9.48;;;;;;;1.38;100.00;95977.56;5009973;28;20033;-61
2022/03/01 08:37:52;;;;;;;14.85;8.80;;;;;;;1.52;100.00;95995.22;4994256;28;20026;-60
2022/03/01 08:40:19;;;;;;;16.23;9.15;;;;;;;1.57;100.00;96013.94;4987280;28;20027;-60
2022/03/01 08:42:44;;;;;;;14.85;7.97;;;;;;;1.54;100.00;96032.81;4972824;28;20511;-59
2022/03/01 08:45:13;;;;;;;14.20;8.82;;;;;;;1.50;100.00;96049.19;4982638;28;20169;-61
2022/03/01 08:47:42;;;;;;;18.13;9.02;;;;;;;1.81;100.00;96052.41;4994023;28;20053;-61
2022/03/01 08:50:08;;;;;;;15.15;8.98;;;;;;;1.83;100.00;96068.88;4994470;28;20390;-61
2022/03/01 08:52:33;;;;;;;17.33;9.07;;;;;;;2.02;100.00;96075.38;5007425;28;20073;-61
2022/03/01 08:54:59;;;;;;;20.55;9.98;;;;;;;1.94;100.00;96088.69;4994253;28;20026;-62
2022/03/01 08:57:24;;;;;;;15.98;9.20;;;;;;;1.97;100.00;96094.47;4973634;28;20035;-60
2022/03/01 08:59:50;;;;;;;17.45;9.63;;;;;;;2.20;100.00;96104.88;4983272;28;20037;-60
2022/03/01 09:02:17;;;;;;;16.27;9.05;;;;;;;2.53;100.00;96105.19;4974111;28;20019;-58
2022/03/01 09:04:51;;;;;;;16.27;8.98;;;;;;;2.55;100.00;96112.94;4981101;28;20030;-60
2022/03/01 09:07:17;;;;;;;17.27;9.05;;;;;;;2.45;100.00;96131.75;4989614;28;20096;-60
2022/03/01 09:09:43;;;;;;;15.68;9.38;;;;;;;2.35;100.00;96139.16;4980753;28;20482;-58
2022/03/01 09:12:08;;;;;;;13.68;8.25;;;;;;;2.42;100.00;96141.88;4987340;28;20446;-61
2022/03/01 09:14:34;;;;;;;21.25;9.40;;;;;;;2.39;100.00;96153.66;4985306;28;20029;-62
2022/03/01 09:16:59;;;;;;;14.20;9.10;;;;;;;2.51;100.00;96170.69;4974456;28;20042;-62
2022/03/01 09:19:27;;;;;;;15.07;8.98;;;;;;;2.51;100.00;96175.16;4988594;28;20030;-62
2022/03/01 09:21:53;;;;;;;14.00;9.00;;;;;;;3.05;100.00;96178.09;4984379;28;20065;-62
2022/03/01 09:24:18;;;;;;;16.58;8.93;;;;;;;2.91;100.00;96198.31;4978309;28;20050;-62
2022/03/01 09:26:43;;;;;;;15.98;9.88;;;;;;;3.12;100.00;96212.53;5001660;28;20476;-61
2022/03/01 09:29:11;;;;;;;15.10;9.35;;;;;;;3.43;100.00;96223.59;4963176;28;20124;-61
2022/03/01 09:31:36;;;;;;;17.88;9.40;;;;;;;3.38;100.00;96230.50;4998797;28;20473;-62
2022/03/01 09:34:04;;;;;;;16.52;9.50;;;;;;;3.50;100.00;96228.97;4993563;28;20033;-62
2022/03/01 09:36:30;;;;;;;19.58;9.75;;;;;;;3.71;100.00;96228.09;4991778;28;20054;-60
2022/03/01 09:38:55;;;;;;;14.88;9.55;;;;;;;3.98;100.00;96232.53;4975867;28;20059;-61
2022/03/01 09:41:21;;;;;;;16.65;9.35;;;;;;;4.10;100.00;96234.63;4986680;28;20023;-60
2022/03/01 09:43:54;;;;;;;16.73;9.43;;;;;;;4.05;100.00;96256.44;4973231;28;20029;-62
2022/03/01 09:46:19;;;;;;;;;;;;;;;4.25;100.00;96267.16;4980847;28;20496;-62
2022/03/01 09:48:45;;;;;;;15.32;9.18;;;;;;;4.51;100.00;96280.53;4993502;28;19910;-61
2022/03/01 09:51:13;;;;;;;15.35;9.48;;;;;;;4.56;100.00;96294.03;4987564;28;20096;-59
2022/03/01 09:53:46;;;;;;;20.25;9.32;;;;;;;4.49;100.00;96316.25;4987541;28;20034;-61
2022/03/01 09:56:14;;;;;;;15.82;8.68;;;;;;;4.61;100.00;96304.06;4993262;28;20497;-60
2022/03/01 09:58:47;;;;;;;17.77;8.93;;;;;;;4.86;100.00;96315.78;4991854;28;20034;-60
2022/03/01 10:01:14;;;;;;;15.95;8.43;;;;;;;5.01;100.00;96328.91;4974654;28;20066;-60
2022/03/01 10:03:40;;;;;;;13.68;8.80;;;;;;;4.86;100.00;96337.00;4982564;28;20030;-62
2022/03/01 10:06:10;;;;;;;16.20;8.43;;;;;;;5.01;100.00;96336.88;4992968;28;20038;-62
2022/03/01 10:08:35;;;;;;;13.68;8.98;;;;;;;5.20;100.00;96346.72;4987805;28;20022;-62
2022/03/01 10:11:04;;;;;;;13.95;8.93;;;;;;;5.34;100.00;96355.56;4989790;28;20042;-63
2022/03/01 10:13:32;;;;;;;13.55;8.63;;;;;;;5.15;100.00;96361.66;4989071;28;20022;-63
2022/03/01 10:16:12;;;;;;;15.48;9.35;;;;;;;5.41;100.00;96364.34;4973099;28;20102;-60
2022/03/01 10:18:39;;;;;;;16.80;9.25;;;;;;;5.43;100.00;96367.66;4971746;28;20060;-60
2022/03/01 10:21:10;;;;;;;14.52;8.60;;;;;;;5.68;100.00;96367.91;4982750;28;20057;-61
2022/03/01 10:23:38;;;;;;;15.40;9.10;;;;;;;5.93;100.00;96376.13;4991410;28;20033;-61
2022/03/01 10:26:19;;;;;;;14.50;8.85;;;;;;;5.95;100.00;96381.22;4992586;28;20381;-61
2022/03/01 10:28:46;;;;;;;14.77;8.93;;;;;;;6.18;100.00;96375.50;4992532;28;20489;-62
2022/03/01 10:31:14;;;;;;;14.88;9.30;;;;;;;6.53;100.00;96378.75;4991124;28;20041;-62
2022/03/01 10:33:52;;;;;;;16.70;9.77;;;;;;;6.65;100.00;96380.56;4992355;28;20496;-61
2022/03/01 10:36:21;;;;;;;14.73;9.00;;;;;;;6.97;100.00;96381.50;4992097;28;20036;-61
2022/03/01 10:39:04;;;;;;;13.95;8.93;;;;;;;7.09;99.63;96386.19;4973754;28;20041;-61
2022/03/01 10:41:32;;;;;;;14.68;9.35;;;;;;;7.19;98.21;96398.03;5007356;28;20033;-63
2022/03/01 10:43:59;;;;;;;14.45;9.20;;;;;;;7.23;95.83;96403.75;4992513;28;20037;-61
2022/03/01 10:46:37;;;;;;;17.38;9.25;;;;;;;7.33;95.50;96409.44;4992127;28;20026;-61
2022/03/01 10:49:06;;;;;;;14.02;9.32;;;;;;;7.24;94.88;96413.38;4992381;28;20026;-62
2022/03/01 10:54:24;;;;;;;17.67;10.02;;;;;;;7.13;94.81;96416.69;4969335;28;20394;-66
2022/03/01 10:56:51;;;;;;;16.63;9.05;;;;;;;7.23;92.76;96422.41;4972276;28;20426;-66
2022/03/01 10:59:36;;;;;;;15.50;9.32;;;;;;;7.50;92.42;96425.78;4973418;28;20027;-66
2022/03/01 11:02:03;;;;;;;15.23;9.45;;;;;;;7.82;93.86;96422.13;4972184;28;20102;-66
2022/03/01 11:04:29;;;;;;;14.02;8.85;;;;;;;8.17;91.81;96424.34;4973402;28;20044;-65
2022/03/01 11:06:58;;;;;;;15.43;9.15;;;;;;;8.17;91.91;96421.69;4972091;28;20807;-65
2022/03/01 11:09:28;;;;;;;18.30;9.07;;;;;;;8.14;88.27;96425.59;4973262;28;20437;-65
2022/03/01 11:11:55;;;;;;;13.73;8.60;;;;;;;8.01;86.27;96428.34;4973250;28;20389;-66
2022/03/01 11:14:42;;;;;;;14.30;9.23;;;;;;;8.16;84.79;96435.25;4988154;28;20106;-65
2022/03/01 11:17:31;;;;;;;12.80;8.88;;;;;;;8.32;83.40;96432.84;4973249;28;20027;-66
2022/03/01 11:20:21;;;;;;;14.07;9.10;;;;;;;8.62;82.66;96432.22;4971938;28;20026;-65
2022/03/01 11:22:52;;;;;;;13.82;8.73;;;;;;;8.56;81.06;96433.09;4973341;28;20039;-65
2022/03/01 11:25:23;;;;;;;15.95;8.48;;;;;;;8.69;81.82;96435.66;4973180;28;20031;-66
2022/03/01 11:28:08;;;;;;;13.75;8.68;;;;;;;8.80;80.95;96431.44;4973332;28;20027;-66